createdAt,value
2023-03-19T00:00:19.989Z,101099.22
2023-03-19T00:02:51.255Z,101114.38
2023-03-19T00:05:19.106Z,101120.22
2023-03-19T00:07:45.896Z,101111.75
2023-03-19T00:10:12.488Z,101115.47
2023-03-19T00:12:39.100Z,101050.41
2023-03-19T00:15:09.080Z,101119.09
2023-03-19T00:17:35.918Z,101116.63
2023-03-19T00:20:02.463Z,101126.53
2023-03-19T00:22:29.024Z,101119.44
2023-03-19T00:24:55.583Z,101120.03
2023-03-19T00:27:22.034Z,101044.16
2023-03-19T00:29:48.715Z,101108.47
2023-03-19T00:32:15.702Z,101124.22
2023-03-19T00:34:43.160Z,101110.41
2023-03-19T00:37:09.697Z,101129.63
2023-03-19T00:39:36.232Z,101136.75
2023-03-19T00:42:02.754Z,101070.78
2023-03-19T00:44:29.238Z,101134.56
2023-03-19T00:46:55.716Z,101138.38
2023-03-19T00:49:22.377Z,101144.91
2023-03-19T00:51:48.930Z,101139.00
2023-03-19T00:54:15.464Z,101132.31
2023-03-19T00:56:42.053Z,101055.78
2023-03-19T00:59:08.737Z,101083.31
2023-03-19T01:01:35.408Z,101101.31
2023-03-19T01:04:02.006Z,101110.41
2023-03-19T01:06:28.588Z,101140.41
2023-03-19T01:08:55.378Z,101119.25
2023-03-19T01:11:21.941Z,101146.91
2023-03-19T01:13:48.507Z,101149.22
2023-03-19T01:16:14.952Z,101147.16
2023-03-19T01:18:41.657Z,101091.53
2023-03-19T01:21:08.376Z,101143.09
2023-03-19T01:23:34.984Z,101143.97
2023-03-19T01:26:01.865Z,101094.38
2023-03-19T01:28:28.375Z,101129.50
2023-03-19T01:31:00.059Z,101136.38
2023-03-19T01:33:26.841Z,101138.44
2023-03-19T01:35:53.434Z,101145.19
2023-03-19T01:38:19.932Z,101135.53
2023-03-19T01:40:47.985Z,101092.91
2023-03-19T01:43:19.979Z,101137.84
2023-03-19T01:45:48.968Z,101132.56
2023-03-19T01:48:27.524Z,101054.22
2023-03-19T01:50:55.552Z,101115.06
2023-03-19T01:53:30.049Z,101123.72
2023-03-19T01:56:02.936Z,101130.50
2023-03-19T01:58:30.007Z,101081.41
2023-03-19T02:00:57.291Z,101125.84
2023-03-19T02:03:25.233Z,101123.41
2023-03-19T02:05:53.227Z,101122.78
2023-03-19T02:08:23.059Z,101123.16
2023-03-19T02:10:51.544Z,101105.28
2023-03-19T02:13:18.190Z,101126.09
2023-03-19T02:15:44.935Z,101118.91
2023-03-19T02:18:12.062Z,101119.50
2023-03-19T02:20:49.550Z,101104.41
2023-03-19T02:23:38.555Z,101129.78
2023-03-19T02:26:14.585Z,101120.25
2023-03-19T02:28:46.560Z,101123.53
2023-03-19T02:31:13.838Z,100946.88
2023-03-19T02:33:41.045Z,101116.44
2023-03-19T02:36:13.580Z,101125.00
2023-03-19T02:38:42.880Z,101090.69
2023-03-19T02:41:09.961Z,101042.94
2023-03-19T02:43:38.693Z,101049.69
2023-03-19T02:46:08.342Z,101121.22
2023-03-19T02:48:35.101Z,101110.91
2023-03-19T02:51:01.820Z,101110.44
2023-03-19T02:53:28.381Z,101121.09
2023-03-19T02:55:55.015Z,101123.91
2023-03-19T02:58:21.733Z,101121.44
2023-03-19T03:00:48.585Z,101122.19
2023-03-19T03:03:15.177Z,101120.44
2023-03-19T03:05:41.679Z,101122.63
2023-03-19T03:08:09.392Z,101117.22
2023-03-19T03:10:36.448Z,101124.59
2023-03-19T03:13:03.264Z,101119.56
2023-03-19T03:15:29.850Z,101117.34
2023-03-19T03:17:57.001Z,101067.78
2023-03-19T03:20:24.792Z,101120.16
2023-03-19T03:22:52.003Z,101108.72
2023-03-19T03:25:18.542Z,101052.81
2023-03-19T03:27:45.063Z,101123.31
2023-03-19T03:30:12.856Z,101116.28
2023-03-19T03:32:39.985Z,101132.22
2023-03-19T03:35:08.454Z,101134.81
2023-03-19T03:37:35.592Z,101106.50
2023-03-19T03:40:04.249Z,101048.00
2023-03-19T03:42:30.976Z,101077.50
2023-03-19T03:44:57.421Z,101125.25
2023-03-19T03:47:23.985Z,101130.50
2023-03-19T03:49:50.980Z,101119.38
2023-03-19T03:52:17.859Z,101107.91
2023-03-19T03:54:44.500Z,101112.13
2023-03-19T03:57:11.040Z,101103.06
2023-03-19T03:59:37.600Z,101014.16
2023-03-19T04:02:04.121Z,101116.19
2023-03-19T04:04:31.182Z,101119.47
2023-03-19T04:06:57.748Z,101084.38
2023-03-19T04:09:24.220Z,101119.94
2023-03-19T04:11:51.925Z,101099.44
2023-03-19T04:14:18.520Z,101112.72
2023-03-19T04:16:45.001Z,101115.19
2023-03-19T04:19:11.538Z,101112.13
2023-03-19T04:21:38.033Z,101126.34
2023-03-19T04:24:04.944Z,101126.13
2023-03-19T04:26:31.780Z,101130.41
2023-03-19T04:28:58.864Z,101027.69
2023-03-19T04:31:25.486Z,101116.50
2023-03-19T04:33:52.528Z,101064.84
2023-03-19T04:36:19.111Z,101119.06
2023-03-19T04:38:45.708Z,101114.28
2023-03-19T04:41:12.268Z,101060.16
2023-03-19T04:43:38.738Z,101119.41
2023-03-19T04:46:06.988Z,101064.34
2023-03-19T04:48:35.933Z,101117.47
2023-03-19T04:51:03.870Z,101106.81
2023-03-19T04:53:30.435Z,101121.41
2023-03-19T04:55:57.294Z,101045.34
2023-03-19T04:58:24.178Z,101126.31
2023-03-19T05:00:50.684Z,101127.28
2023-03-19T05:03:17.358Z,101080.44
2023-03-19T05:05:43.880Z,101110.88
2023-03-19T05:08:10.461Z,101052.69
2023-03-19T05:10:38.061Z,101125.22
2023-03-19T05:13:05.062Z,101118.63
2023-03-19T05:15:31.877Z,101118.03
2023-03-19T05:17:58.920Z,101129.53
2023-03-19T05:20:25.530Z,101136.28
2023-03-19T05:22:53.281Z,101124.03
2023-03-19T05:25:19.746Z,101140.81
2023-03-19T05:27:46.336Z,101109.06
2023-03-19T05:30:13.133Z,101132.97
2023-03-19T05:32:40.857Z,101133.59
2023-03-19T05:35:08.041Z,101136.03
2023-03-19T05:37:34.677Z,101114.25
2023-03-19T05:40:01.118Z,101122.44
2023-03-19T05:42:27.689Z,101123.41
2023-03-19T05:44:54.677Z,100954.41
2023-03-19T05:47:21.519Z,101121.91
2023-03-19T05:49:48.120Z,101094.97
2023-03-19T05:52:14.694Z,101073.91
2023-03-19T05:54:41.664Z,101120.38
2023-03-19T05:57:08.318Z,101103.44
2023-03-19T05:59:34.931Z,101106.63
2023-03-19T06:02:01.777Z,101120.97
2023-03-19T06:04:28.302Z,101055.94
2023-03-19T06:06:54.755Z,101127.09
2023-03-19T06:09:21.320Z,101071.72
2023-03-19T06:11:47.772Z,101068.19
2023-03-19T06:14:14.460Z,101120.13
2023-03-19T06:16:40.953Z,101146.81
2023-03-19T06:19:07.460Z,101148.53
2023-03-19T06:21:33.930Z,101095.63
2023-03-19T06:24:00.568Z,101119.50
2023-03-19T06:26:27.588Z,101152.09
2023-03-19T06:28:54.332Z,101135.94
2023-03-19T06:31:21.463Z,101156.03
2023-03-19T06:33:49.144Z,101154.31
2023-03-19T06:36:15.731Z,101157.22
2023-03-19T06:38:42.194Z,101084.34
2023-03-19T06:41:08.829Z,101144.38
2023-03-19T06:43:38.197Z,101115.94
2023-03-19T06:46:05.291Z,101167.66
2023-03-19T06:48:31.779Z,101142.25
2023-03-19T06:50:58.325Z,101135.66
2023-03-19T06:53:25.524Z,101134.91
2023-03-19T06:55:52.079Z,101147.03
2023-03-19T06:58:18.601Z,101186.47
2023-03-19T07:00:45.234Z,101189.19
2023-03-19T07:03:12.359Z,101185.72
2023-03-19T07:05:39.028Z,101163.69
2023-03-19T07:08:11.797Z,101178.19
2023-03-19T07:10:39.717Z,101171.69
2023-03-19T07:13:06.856Z,101191.06
2023-03-19T07:15:34.154Z,101193.06
2023-03-19T07:18:00.779Z,101153.78
2023-03-19T07:20:27.373Z,101193.84
2023-03-19T07:22:54.233Z,101184.81
2023-03-19T07:25:21.198Z,101191.91
2023-03-19T07:27:47.827Z,101203.78
2023-03-19T07:30:15.698Z,101184.66
2023-03-19T07:32:43.110Z,101154.41
2023-03-19T07:35:10.877Z,101209.91
2023-03-19T07:37:37.450Z,101164.13
2023-03-19T07:40:05.235Z,101201.72
2023-03-19T07:42:31.984Z,101181.09
2023-03-19T07:44:58.515Z,101191.03
2023-03-19T07:47:29.530Z,101208.09
2023-03-19T07:49:57.113Z,101216.59
2023-03-19T07:52:25.120Z,101221.78
2023-03-19T07:54:52.560Z,101217.63
2023-03-19T07:57:19.592Z,101199.28
2023-03-19T07:59:46.521Z,101210.78
2023-03-19T08:02:13.594Z,101212.00
2023-03-19T08:04:41.483Z,101217.97
2023-03-19T08:07:10.802Z,101215.56
2023-03-19T08:09:37.627Z,101213.28
2023-03-19T08:12:05.588Z,101213.97
2023-03-19T08:14:33.073Z,101225.81
2023-03-19T08:17:00.410Z,101222.16
2023-03-19T08:19:26.947Z,101210.00
2023-03-19T08:21:53.587Z,101230.66
2023-03-19T08:24:20.307Z,101215.25
2023-03-19T08:26:48.714Z,101231.69
2023-03-19T08:29:17.284Z,101229.97
2023-03-19T08:31:45.431Z,101135.81
2023-03-19T08:34:12.025Z,101141.94
2023-03-19T08:36:38.564Z,101225.69
2023-03-19T08:39:05.147Z,101235.66
2023-03-19T08:41:31.634Z,101220.19
2023-03-19T08:43:58.232Z,101188.00
2023-03-19T08:46:25.591Z,101234.41
2023-03-19T08:48:52.077Z,101228.88
2023-03-19T08:51:18.555Z,101227.06
2023-03-19T08:53:45.111Z,101210.91
2023-03-19T08:56:11.686Z,101233.47
2023-03-19T08:58:38.450Z,101234.59
2023-03-19T09:01:10.968Z,101242.53
2023-03-19T09:03:38.807Z,101235.41
2023-03-19T09:06:07.790Z,101188.88
2023-03-19T09:08:35.556Z,101247.28
2023-03-19T09:11:02.343Z,101221.59
2023-03-19T09:13:28.973Z,101196.28
2023-03-19T09:15:55.971Z,101245.94
2023-03-19T09:18:25.499Z,101240.03
2023-03-19T09:20:55.297Z,101239.84
2023-03-19T09:23:22.492Z,101153.59
2023-03-19T09:25:49.485Z,101243.66
2023-03-19T09:28:16.124Z,101247.47
2023-03-19T09:30:43.471Z,101238.44
2023-03-19T09:33:10.046Z,101224.03
2023-03-19T09:35:39.769Z,101249.03
2023-03-19T09:38:06.972Z,101244.84
2023-03-19T09:40:44.140Z,101243.13
2023-03-19T09:43:27.964Z,101227.47
2023-03-19T09:45:54.574Z,101257.94
2023-03-19T09:48:34.517Z,101261.75
2023-03-19T09:51:06.580Z,101245.56
2023-03-19T09:54:01.945Z,101256.44
2023-03-19T09:56:28.680Z,101264.00
2023-03-19T09:58:55.412Z,101260.53
2023-03-19T10:01:35.431Z,101260.69
2023-03-19T10:04:32.868Z,101258.31
2023-03-19T10:07:17.623Z,101203.63
2023-03-19T10:09:56.159Z,101230.66
2023-03-19T10:13:01.253Z,101264.03
2023-03-19T10:15:46.957Z,101253.34
2023-03-19T10:18:19.776Z,101243.66
2023-03-19T10:20:58.398Z,101249.59
2023-03-19T10:23:50.287Z,101254.53
2023-03-19T10:26:22.404Z,101255.88
2023-03-19T10:29:04.886Z,101258.25
2023-03-19T10:31:40.813Z,101253.78
2023-03-19T10:34:21.216Z,101238.16
2023-03-19T10:36:47.723Z,101236.06
2023-03-19T10:39:19.043Z,101255.25
2023-03-19T10:41:54.459Z,101249.25
2023-03-19T10:44:37.395Z,101227.75
2023-03-19T10:47:12.018Z,101239.38
2023-03-19T10:49:38.658Z,101215.81
2023-03-19T10:52:06.791Z,101232.53
2023-03-19T10:54:33.329Z,101233.06
2023-03-19T10:57:01.548Z,101234.56
2023-03-19T10:59:30.942Z,101237.84
2023-03-19T11:02:19.528Z,101234.97
2023-03-19T11:04:46.930Z,101237.50
2023-03-19T11:07:17.910Z,101231.03
2023-03-19T11:09:48.336Z,101195.59
2023-03-19T11:12:19.841Z,101247.41
2023-03-19T11:14:52.374Z,101240.28
2023-03-19T11:17:49.902Z,101240.16
2023-03-19T11:20:35.116Z,101236.75
2023-03-19T11:23:06.219Z,101237.75
2023-03-19T11:25:42.273Z,101247.13
2023-03-19T11:28:19.730Z,101226.31
2023-03-19T11:31:02.382Z,101232.47
2023-03-19T11:33:54.504Z,101151.84
2023-03-19T11:36:55.645Z,101237.44
2023-03-19T11:39:28.433Z,101238.75
2023-03-19T11:41:57.978Z,101236.44
2023-03-19T11:44:45.834Z,101232.91
2023-03-19T11:47:30.562Z,101226.97
2023-03-19T11:50:08.767Z,101230.00
2023-03-19T11:52:40.789Z,101237.63
2023-03-19T11:55:32.454Z,101237.53
2023-03-19T11:58:26.474Z,101237.38
2023-03-19T12:00:55.208Z,101220.44
2023-03-19T12:03:30.435Z,101237.66
2023-03-19T12:06:00.937Z,101241.69
2023-03-19T12:08:55.902Z,101241.81
2023-03-19T12:11:41.872Z,101243.53
2023-03-19T12:14:26.791Z,101083.94
2023-03-19T12:17:16.320Z,101235.78
2023-03-19T12:20:01.462Z,101237.44
2023-03-19T12:22:43.144Z,101241.72
2023-03-19T12:25:26.435Z,101237.75
2023-03-19T12:28:00.419Z,101237.63
2023-03-19T12:30:34.711Z,101242.75
2023-03-19T12:33:26.413Z,101255.66
2023-03-19T12:35:56.931Z,101135.13
2023-03-19T12:38:33.720Z,101192.56
2023-03-19T12:41:07.952Z,101212.53
2023-03-19T12:43:42.310Z,101231.56
2023-03-19T12:46:13.783Z,101240.03
2023-03-19T12:49:03.020Z,101232.56
2023-03-19T12:51:42.162Z,101237.31
2023-03-19T12:54:14.528Z,101237.56
2023-03-19T12:57:01.785Z,101237.97
2023-03-19T12:59:37.237Z,101230.16
2023-03-19T13:02:18.909Z,101241.47
2023-03-19T13:04:55.694Z,101186.88
2023-03-19T13:07:28.446Z,101231.22
2023-03-19T13:10:06.905Z,101244.00
2023-03-19T13:12:38.259Z,101236.69
2023-03-19T13:15:21.182Z,101184.81
2023-03-19T13:18:03.505Z,101240.41
2023-03-19T13:20:48.787Z,101232.38
2023-03-19T13:23:24.494Z,101233.69
2023-03-19T13:25:54.162Z,101256.00
2023-03-19T13:28:31.830Z,101218.78
2023-03-19T13:31:03.621Z,101195.50
2023-03-19T13:33:31.782Z,101239.75
2023-03-19T13:36:03.289Z,101234.81
2023-03-19T13:38:40.387Z,101222.34
2023-03-19T13:41:32.562Z,101229.28
2023-03-19T13:44:00.276Z,101231.16
2023-03-19T13:46:35.598Z,101185.13
2023-03-19T13:49:26.577Z,101230.47
2023-03-19T13:52:21.740Z,101225.13
2023-03-19T13:54:54.051Z,101214.66
2023-03-19T13:57:32.632Z,101176.41
2023-03-19T14:00:37.684Z,101217.34
2023-03-19T14:03:06.344Z,101229.53
2023-03-19T14:05:36.335Z,101222.69
2023-03-19T14:08:17.218Z,101251.38
2023-03-19T14:10:49.983Z,100470.72
2023-03-19T14:13:40.257Z,104876.97
2023-03-19T14:16:21.473Z,104462.16
2023-03-19T14:18:49.754Z,104199.63
2023-03-19T14:21:31.898Z,103927.22
2023-03-19T14:24:57.867Z,103595.56
2023-03-19T14:27:17.109Z,103315.06
2023-03-19T14:29:45.664Z,103100.44
2023-03-19T14:32:18.338Z,102809.56
2023-03-19T14:34:46.654Z,101000.31
2023-03-19T14:37:22.214Z,100374.59
2023-03-19T14:40:02.611Z,100322.16
2023-03-19T14:42:50.409Z,100437.84
2023-03-19T14:45:41.712Z,100424.09
2023-03-19T14:48:33.397Z,100456.69
2023-03-19T14:51:09.378Z,100437.34
2023-03-19T14:53:41.661Z,100258.91
2023-03-19T14:56:16.583Z,100305.50
2023-03-19T14:58:50.625Z,100310.22
2023-03-19T15:01:18.762Z,100448.81
2023-03-19T15:03:46.162Z,100418.94
2023-03-19T15:06:15.500Z,100448.25
2023-03-19T15:08:42.549Z,100539.00
2023-03-19T15:11:15.198Z,100740.09
2023-03-19T15:13:59.921Z,100719.03
2023-03-19T15:16:35.805Z,100722.59
2023-03-19T15:19:02.505Z,100751.78
2023-03-19T15:21:31.415Z,100753.38
2023-03-19T15:23:58.218Z,100723.28
2023-03-19T15:26:33.398Z,100860.41
2023-03-19T15:29:00.236Z,100824.00
2023-03-19T15:32:04.808Z,100821.63
2023-03-19T15:34:33.294Z,100847.50
2023-03-19T15:37:04.642Z,100888.25
2023-03-19T15:39:36.215Z,100924.00
2023-03-19T15:42:04.783Z,100972.91
2023-03-19T15:44:39.782Z,100939.69
2023-03-19T15:47:11.994Z,100989.38
2023-03-19T15:49:44.065Z,101019.22
2023-03-19T15:52:15.963Z,101024.56
2023-03-19T15:54:42.928Z,100984.25
2023-03-19T15:57:13.096Z,100999.78
2023-03-19T15:59:39.810Z,101032.47
2023-03-19T16:02:18.751Z,101037.31
2023-03-19T16:05:14.119Z,101051.03
2023-03-19T16:07:43.696Z,101056.84
2023-03-19T16:10:32.410Z,101086.28
2023-03-19T16:13:05.163Z,101077.91
2023-03-19T16:15:44.104Z,101081.50
2023-03-19T16:18:16.529Z,101088.22
2023-03-19T16:20:45.986Z,101092.41
2023-03-19T16:23:18.461Z,101100.50
2023-03-19T16:25:46.503Z,101081.50
2023-03-19T16:28:23.978Z,101074.34
2023-03-19T16:30:51.606Z,101102.22
2023-03-19T16:33:19.950Z,101114.59
2023-03-19T16:35:46.858Z,101119.50
2023-03-19T16:38:17.476Z,101120.75
2023-03-19T16:40:48.822Z,101087.09
2023-03-19T16:43:23.217Z,101132.69
2023-03-19T16:45:52.113Z,101088.47
2023-03-19T16:48:19.001Z,101138.19
2023-03-19T16:50:47.635Z,101126.47
2023-03-19T16:53:26.041Z,101154.59
2023-03-19T16:55:55.580Z,101157.88
2023-03-19T16:58:29.916Z,101178.44
2023-03-19T17:00:56.634Z,101180.97
2023-03-19T17:03:23.289Z,101159.38
2023-03-19T17:05:50.129Z,101184.44
2023-03-19T17:08:16.880Z,101146.75
2023-03-19T17:10:49.286Z,101196.34
2023-03-19T17:13:22.909Z,101167.28
2023-03-19T17:15:50.931Z,101183.84
2023-03-19T17:18:22.070Z,101183.47
2023-03-19T17:20:57.170Z,101200.44
2023-03-19T17:23:26.972Z,101194.16
2023-03-19T17:25:54.197Z,101181.91
2023-03-19T17:28:20.904Z,101188.03
2023-03-19T17:30:47.657Z,101175.44
2023-03-19T17:33:25.087Z,101178.75
2023-03-19T17:35:53.482Z,101187.84
2023-03-19T17:38:22.200Z,101174.59
2023-03-19T17:40:48.781Z,101126.25
2023-03-19T17:43:15.527Z,101172.16
2023-03-19T17:45:46.759Z,101146.63
2023-03-19T17:48:21.477Z,101129.22
2023-03-19T17:50:49.512Z,101182.25
2023-03-19T17:53:18.648Z,101190.66
2023-03-19T17:55:46.657Z,101162.53
2023-03-19T17:58:18.405Z,101176.53
2023-03-19T18:00:46.678Z,101183.34
2023-03-19T18:03:19.705Z,101167.78
2023-03-19T18:05:46.403Z,101170.50
2023-03-19T18:08:19.265Z,101175.63
2023-03-19T18:10:45.901Z,101169.31
2023-03-19T18:13:12.722Z,101162.31
2023-03-19T18:15:41.136Z,101150.56
2023-03-19T18:18:16.109Z,101176.38
2023-03-19T18:20:42.738Z,101175.91
2023-03-19T18:23:11.639Z,101176.16
2023-03-19T18:25:38.115Z,101169.59
2023-03-19T18:28:05.532Z,101144.78
2023-03-19T18:30:34.717Z,101167.25
2023-03-19T18:33:04.839Z,101174.25
2023-03-19T18:35:40.753Z,101169.38
2023-03-19T18:38:19.451Z,101177.31
2023-03-19T18:40:47.171Z,101095.88
2023-03-19T18:43:16.091Z,101170.84
2023-03-19T18:45:48.563Z,101108.97
2023-03-19T18:48:24.760Z,101161.50
2023-03-19T18:50:52.170Z,101137.31
2023-03-19T18:53:19.064Z,101150.69
2023-03-19T18:55:47.031Z,101161.38
2023-03-19T18:58:28.070Z,101158.03
2023-03-19T19:00:55.145Z,101166.91
2023-03-19T19:03:28.600Z,101168.19
2023-03-19T19:05:56.246Z,101197.84
2023-03-19T19:08:25.349Z,101187.22
2023-03-19T19:10:55.601Z,101188.28
2023-03-19T19:13:26.382Z,101190.72
2023-03-19T19:15:53.422Z,101204.78
2023-03-19T19:18:22.557Z,101213.09
2023-03-19T19:20:51.421Z,101179.13
2023-03-19T19:23:19.367Z,101209.47
2023-03-19T19:25:48.126Z,101191.38
2023-03-19T19:28:22.077Z,101211.22
2023-03-19T19:30:49.494Z,101189.19
2023-03-19T19:33:18.693Z,101140.97
2023-03-19T19:35:45.847Z,101221.06
2023-03-19T19:38:13.632Z,101227.00
2023-03-19T19:40:42.984Z,101238.16
2023-03-19T19:43:18.304Z,101245.31
2023-03-19T19:45:47.215Z,101230.38
2023-03-19T19:48:16.778Z,101245.56
2023-03-19T19:50:44.752Z,101237.00
2023-03-19T19:53:11.525Z,101247.28
2023-03-19T19:55:38.860Z,101250.13
2023-03-19T19:58:08.538Z,101263.94
2023-03-19T20:00:35.311Z,101243.38
2023-03-19T20:03:01.842Z,101262.66
2023-03-19T20:05:32.291Z,101263.03
2023-03-19T20:08:02.731Z,101241.72
2023-03-19T20:10:30.730Z,101265.97
2023-03-19T20:13:01.665Z,101273.47
2023-03-19T20:15:33.007Z,101278.13
2023-03-19T20:18:02.284Z,101274.41
2023-03-19T20:20:32.484Z,101265.38
2023-03-19T20:23:01.627Z,101254.47
2023-03-19T20:25:32.514Z,101281.31
2023-03-19T20:28:01.396Z,101281.56
2023-03-19T20:30:31.941Z,101264.50
2023-03-19T20:32:59.719Z,101139.38
2023-03-19T20:35:29.242Z,101272.38
2023-03-19T20:37:57.568Z,101216.06
2023-03-19T20:40:46.708Z,101277.38
2023-03-19T20:43:33.274Z,101286.47
2023-03-19T20:46:02.937Z,101329.66
2023-03-19T20:48:30.757Z,101239.81
2023-03-19T20:50:58.352Z,101324.59
2023-03-19T20:53:25.015Z,101331.97
2023-03-19T20:55:52.232Z,101276.63
2023-03-19T20:58:34.668Z,101319.88
2023-03-19T21:01:01.371Z,101300.50
2023-03-19T21:03:30.060Z,101324.91
2023-03-19T21:06:05.234Z,101341.44
2023-03-19T21:08:39.136Z,101347.22
2023-03-19T21:11:08.884Z,101315.31
2023-03-19T21:13:35.522Z,101347.91
2023-03-19T21:16:02.062Z,101355.53
2023-03-19T21:18:28.603Z,101345.69
2023-03-19T21:20:57.227Z,101355.47
2023-03-19T21:23:37.287Z,101354.97
2023-03-19T21:26:19.485Z,101297.00
2023-03-19T21:28:49.615Z,101360.59
2023-03-19T21:31:18.993Z,101303.38
2023-03-19T21:33:46.673Z,101359.16
2023-03-19T21:36:14.313Z,101369.94
2023-03-19T21:38:41.780Z,101348.75
2023-03-19T21:41:28.892Z,101361.66
2023-03-19T21:43:57.858Z,101368.41
2023-03-19T21:46:27.535Z,101363.50
2023-03-19T21:48:55.378Z,101372.72
2023-03-19T21:51:23.658Z,101370.38
2023-03-19T21:53:50.169Z,101371.19
2023-03-19T21:56:25.609Z,101348.53
2023-03-19T21:58:53.350Z,101362.25
2023-03-19T22:01:23.783Z,101355.66
2023-03-19T22:03:51.759Z,101376.25
2023-03-19T22:06:19.227Z,101362.06
2023-03-19T22:08:48.181Z,101370.63
2023-03-19T22:11:22.878Z,101289.50
2023-03-19T22:13:49.547Z,101362.06
2023-03-19T22:16:23.928Z,101365.72
2023-03-19T22:18:51.978Z,101324.97
2023-03-19T22:21:21.754Z,101371.09
2023-03-19T22:23:48.913Z,101334.16
2023-03-19T22:26:29.450Z,101344.75
2023-03-19T22:28:58.490Z,101331.38
2023-03-19T22:31:25.578Z,101371.25
2023-03-19T22:33:52.666Z,101357.53
2023-03-19T22:36:19.310Z,101360.50
2023-03-19T22:38:47.009Z,101381.34
2023-03-19T22:41:39.786Z,101380.81
2023-03-19T22:44:10.877Z,101295.03
2023-03-19T22:46:37.376Z,101374.19
2023-03-19T22:49:12.717Z,101369.63
2023-03-19T22:51:39.292Z,101370.16
2023-03-19T22:54:06.016Z,101368.31
2023-03-19T22:56:32.499Z,101376.31
2023-03-19T22:58:59.174Z,101377.03
2023-03-19T23:01:32.728Z,101363.69
2023-03-19T23:04:14.380Z,101373.25
2023-03-19T23:06:41.154Z,101327.00
2023-03-19T23:09:13.841Z,101371.75
2023-03-19T23:11:40.344Z,101365.88
2023-03-19T23:14:10.333Z,101327.97
2023-03-19T23:16:43.627Z,101378.56
2023-03-19T23:19:18.345Z,101376.88
2023-03-19T23:21:44.861Z,101331.91
2023-03-19T23:24:13.168Z,101371.28
2023-03-19T23:26:43.040Z,101358.03
2023-03-19T23:29:22.383Z,101362.47
2023-03-19T23:31:50.765Z,101357.31
2023-03-19T23:34:17.873Z,101357.91
2023-03-19T23:36:44.697Z,101377.13
2023-03-19T23:39:11.474Z,101372.56
2023-03-19T23:41:48.342Z,101354.97
2023-03-19T23:44:16.770Z,101335.69
2023-03-19T23:46:45.029Z,101339.81
2023-03-19T23:49:18.260Z,101360.75
2023-03-19T23:51:44.769Z,101371.47
2023-03-19T23:54:28.608Z,101386.41
2023-03-19T23:57:01.639Z,101383.09
2023-03-19T23:59:34.471Z,101383.47
